Main page
METAR-TAF:

METAR-TAF

Airports :

Kazan International Airport

Kazan, Russia

latitude: 55-47N, longitude: 049-12E, elevation: 125 m

Current weather observation

The report was made 17 minutes ago, at 03:00 UTC
Wind 10 kt from the Southeast
Temperature -7°C
Humidity 79%
Pressure 1027 hPa
Visibility 10 km or more
no clouds below 1500 m and no cumulonimbus

METAR: UWKD 150300Z 14005MPS CAVOK M07/M10 Q1027 R11/350045 NOSIG RMK QFE760/1014

Time: 06:17 (03:17 UTC)

Forecast

The report was made 1 hour and 17 minutes ago, at 02:00 UTC
Forecast valid from 15 at 03 UTC to 16 at 03 UTC
Wind 10 kt from the Southeast with gusts up to 23 kt
Visibility 10 km or more
Broken clouds at a height of 1600 ft
Temporary
from 15 at 03 UTC to 15 at 09 UTC
Visibility: 2100 m
Broken clouds at a height of 500 ft
light snow, mist

TAF: UWKD 150200Z 1503/1603 14005G12MPS 9999 BKN016 TXM04/1511Z TNM07/1503Z TEMPO 1503/1509 2100 -SN BR BKN005

Weather observations and forecasts of more than 4000 airports (METAR and TAF reports).

The available stations are represented by yellow and red dots on the map.

Hover mouse over dot to see the name of the station.

Then click to see weather observations and forecasts.

To change the map : click on the green buttons with a black cross to zoom in, on the green button with a dash to zoom out, or on the green arrows for adjacent maps.


METAR-TAF: